createdAt,value
2022-08-05T00:01:29.041Z,98
2022-08-05T00:11:30.456Z,98
2022-08-05T00:21:30.467Z,97
2022-08-05T00:31:41.586Z,96
2022-08-05T00:41:29.773Z,96
2022-08-05T00:51:50.188Z,96
2022-08-05T01:01:42.394Z,98
2022-08-05T01:11:33.754Z,100
2022-08-05T01:21:37.765Z,99
2022-08-05T01:31:32.404Z,100
2022-08-05T01:41:32.823Z,100
2022-08-05T01:51:33.099Z,100
2022-08-05T02:01:39.768Z,100
2022-08-05T02:11:34.181Z,100
2022-08-05T02:21:37.931Z,100
2022-08-05T02:31:35.550Z,100
2022-08-05T02:41:43.473Z,100
2022-08-05T02:52:01.290Z,100
2022-08-05T03:01:37.814Z,100
2022-08-05T03:11:54.073Z,100
2022-08-05T03:41:45.337Z,100
2022-08-05T03:52:36.377Z,100
2022-08-05T04:01:42.009Z,100
2022-08-05T04:11:47.177Z,100
2022-08-05T04:22:05.375Z,100
2022-08-05T04:31:43.217Z,100
2022-08-05T04:41:43.586Z,100
2022-08-05T04:51:44.475Z,100
2022-08-05T05:11:54.277Z,100
2022-08-05T05:21:46.586Z,100
2022-08-05T05:31:46.828Z,100
2022-08-05T05:41:54.207Z,100
2022-08-05T05:51:49.856Z,100
2022-08-05T06:01:53.873Z,100
2022-08-05T06:11:48.920Z,100
2022-08-05T06:21:50.002Z,100
2022-08-05T06:31:50.594Z,100
2022-08-05T06:41:50.979Z,100
2022-08-05T06:51:51.501Z,100
2022-08-05T07:11:53.219Z,100
2022-08-05T07:22:00.839Z,100
2022-08-05T07:31:55.466Z,100
2022-08-05T07:42:10.032Z,100
2022-08-05T08:12:00.308Z,100
2022-08-05T08:21:58.284Z,100
2022-08-05T08:31:59.103Z,100
2022-08-05T08:52:04.562Z,100
2022-08-05T09:02:01.508Z,100
2022-08-05T09:22:18.559Z,100
2022-08-05T09:32:39.727Z,100
2022-08-05T09:42:04.067Z,100
2022-08-05T09:42:28.072Z,100
2022-08-05T09:52:10.006Z,100
2022-08-05T10:02:10.643Z,100
2022-08-05T10:12:19.059Z,100
2022-08-05T10:22:15.587Z,100
2022-08-05T10:32:49.909Z,99
2022-08-05T10:42:11.642Z,97
2022-08-05T10:52:12.190Z,96
2022-08-05T11:02:14.337Z,94
2022-08-05T11:12:14.002Z,91
2022-08-05T11:22:14.541Z,91
2022-08-05T11:32:15.649Z,90
2022-08-05T11:42:18.181Z,89
2022-08-05T11:52:15.922Z,86
2022-08-05T12:02:24.366Z,84
2022-08-05T12:12:17.025Z,84
2022-08-05T12:22:17.922Z,83
2022-08-05T12:32:17.611Z,84
2022-08-05T12:42:18.651Z,84
2022-08-05T12:52:24.076Z,81
2022-08-05T13:02:19.503Z,76
2022-08-05T13:12:19.754Z,78
2022-08-05T13:22:28.429Z,79
2022-08-05T13:32:21.532Z,79
2022-08-05T13:42:21.761Z,78
2022-08-05T13:52:29.010Z,75
2022-08-05T14:02:26.428Z,71
2022-08-05T14:12:32.411Z,64
2022-08-05T14:32:26.743Z,52
2022-08-05T14:42:25.154Z,53
2022-08-05T14:52:43.122Z,52
2022-08-05T15:02:26.687Z,51
2022-08-05T15:12:27.081Z,51
2022-08-05T15:22:28.018Z,52
2022-08-05T15:32:28.829Z,53
2022-08-05T15:42:28.633Z,52
2022-08-05T15:52:52.523Z,52
2022-08-05T16:02:30.646Z,52
2022-08-05T16:12:31.207Z,53
2022-08-05T16:22:33.827Z,53
2022-08-05T16:32:32.548Z,54
2022-08-05T16:42:33.021Z,54
2022-08-05T16:52:33.712Z,55
2022-08-05T17:02:34.167Z,55
2022-08-05T17:12:50.774Z,56
2022-08-05T17:22:34.681Z,56
2022-08-05T17:32:35.547Z,55
2022-08-05T17:52:52.913Z,57
2022-08-05T18:02:37.058Z,58
2022-08-05T18:12:37.166Z,59
2022-08-05T18:22:46.297Z,60
2022-08-05T18:32:38.478Z,62
2022-08-05T18:42:39.042Z,63
2022-08-05T18:52:39.742Z,64
2022-08-05T19:02:40.002Z,65
2022-08-05T19:22:41.386Z,68
2022-08-05T19:32:41.686Z,70
2022-08-05T19:42:42.392Z,71
2022-08-05T19:52:43.029Z,73
2022-08-05T20:02:42.780Z,73
2022-08-05T20:12:46.523Z,74
2022-08-05T20:22:44.284Z,74
2022-08-05T20:32:45.271Z,75
2022-08-05T20:42:45.136Z,76
2022-08-05T20:52:45.260Z,76
2022-08-05T21:02:51.512Z,76
2022-08-05T21:12:55.614Z,76
2022-08-05T21:22:48.303Z,76
2022-08-05T21:32:49.186Z,77
2022-08-05T22:02:51.112Z,79
2022-08-05T22:12:51.722Z,80
2022-08-05T22:22:51.959Z,80
2022-08-05T22:32:52.073Z,81
2022-08-05T22:42:53.300Z,82
2022-08-05T23:02:54.562Z,84
2022-08-05T23:12:55.690Z,84
2022-08-05T23:22:56.601Z,85
2022-08-05T23:32:56.787Z,86
2022-08-05T23:42:57.826Z,87
